Aviation Digital Data Service (ADDS)

Output produced by METARs form (0201 UTC 27 February 2017)
found at http://www.aviationweather.gov/adds/metars/
 
KJFK 262341Z 2700/2806 26017G25KT P6SM SCT060 
     FM270200 25013KT P6SM FEW060 
     FM270600 23009KT P6SM SKC 
     FM271300 23012KT P6SM SCT120 
     FM271700 21015G22KT P6SM SCT070 BKN100 
     FM280000 21011KT P6SM BKN100 
     FM280300 22008KT P6SM BKN080